Time;durP1;ratioP1;P1;durP2;ratioP2;P2;SDS_P1;SDS_P2;PMS_P1;PMS_P2;Temp;Humidity;BMP_temperature;BMP_pressure;BME280_temperature;BME280_humidity;BME280_pressure;Samples;Min_cycle;Max_cycle;Signal;HPM_P1;HPM_P2
2023/08/13 00:00:37;;;;;;;7.07;3.90;;;;;;;21.48;82.06;100714.97;5032620;28;20036;-72
2023/08/13 00:03:02;;;;;;;7.32;4.50;;;;;;;21.41;81.48;100698.38;5031835;28;20095;-72
2023/08/13 00:05:28;;;;;;;6.88;3.78;;;;;;;21.41;81.97;100714.16;5033142;28;20116;-72
2023/08/13 00:07:53;;;;;;;6.85;4.05;;;;;;;21.37;82.21;100707.16;5032919;28;20091;-72
2023/08/13 00:10:19;;;;;;;6.55;4.05;;;;;;;21.14;83.08;100708.09;5032797;28;20552;-72
2023/08/13 00:12:44;;;;;;;7.65;4.32;;;;;;;20.71;84.54;100689.84;5032541;28;20044;-72
2023/08/13 00:15:10;;;;;;;7.05;3.88;;;;;;;20.71;85.18;100702.03;5032800;28;20064;-72
2023/08/13 00:17:36;;;;;;;10.95;4.25;;;;;;;20.57;85.46;100707.28;5032478;28;20036;-72
2023/08/13 00:20:02;;;;;;;6.97;4.07;;;;;;;20.48;85.65;100706.41;5032282;28;20049;-72
2023/08/13 00:22:29;;;;;;;5.93;3.85;;;;;;;20.64;85.44;100709.91;5032295;28;20411;-72
2023/08/13 00:24:55;;;;;;;6.35;3.97;;;;;;;20.81;84.51;100706.41;5032330;28;20032;-71
2023/08/13 00:27:20;;;;;;;8.15;4.00;;;;;;;21.01;83.06;100706.41;5032136;28;20037;-72
2023/08/13 00:29:46;;;;;;;6.63;4.00;;;;;;;21.07;82.67;100714.25;4981045;28;20053;-72
2023/08/13 00:32:11;;;;;;;8.18;4.43;;;;;;;20.86;83.43;100707.31;5032499;28;20080;-72
2023/08/13 00:34:37;;;;;;;7.20;4.70;;;;;;;20.20;83.76;100632.16;5032285;28;20075;-72
2023/08/13 00:37:02;;;;;;;8.25;4.20;;;;;;;20.23;84.71;100645.25;5032137;28;20044;-72
2023/08/13 00:39:27;;;;;;;8.70;4.57;;;;;;;20.50;85.24;100702.03;5031738;28;20051;-72
2023/08/13 00:41:53;;;;;;;9.13;4.47;;;;;;;20.53;85.48;100709.91;5031987;28;20109;-73
2023/08/13 00:44:18;;;;;;;7.32;4.47;;;;;;;20.17;85.10;100640.84;5031804;28;20029;-72
2023/08/13 00:46:44;;;;;;;8.38;4.70;;;;;;;20.15;85.54;100626.91;5031893;28;20029;-72
2023/08/13 00:49:10;;;;;;;8.57;4.07;;;;;;;20.18;85.53;100637.38;5032029;28;20029;-72
2023/08/13 00:51:36;;;;;;;9.18;4.80;;;;;;;20.66;85.09;100695.06;5031685;28;20398;-72
2023/08/13 00:54:03;;;;;;;7.35;3.97;;;;;;;20.49;83.97;100653.09;5031917;28;20068;-72
2023/08/13 00:56:29;;;;;;;6.95;4.20;;;;;;;20.79;84.06;100698.56;5031851;28;20030;-72
2023/08/13 00:58:54;;;;;;;6.50;4.55;;;;;;;20.92;83.73;100698.53;5032166;28;20587;-72
2023/08/13 01:01:20;;;;;;;6.47;4.07;;;;;;;20.96;82.93;100702.88;5032018;28;20036;-72
2023/08/13 01:03:45;;;;;;;7.43;4.70;;;;;;;20.92;82.89;100698.53;5013523;28;20031;-72
2023/08/13 01:06:32;;;;;;;8.13;4.53;;;;;;;20.97;82.98;100704.63;5031752;28;20509;-73
2023/08/13 01:09:05;;;;;;;7.03;4.53;;;;;;;20.95;82.41;100706.41;5031647;28;20508;-73
2023/08/13 01:11:48;;;;;;;8.15;4.85;;;;;;;21.01;82.29;100704.63;5031521;28;20021;-72
2023/08/13 01:14:25;;;;;;;7.50;4.53;;;;;;;21.08;82.36;100696.75;5030773;28;20026;-72
2023/08/13 01:16:52;;;;;;;6.88;4.28;;;;;;;21.12;81.93;100691.50;5031114;28;20034;-72
2023/08/13 01:19:17;;;;;;;6.82;4.25;;;;;;;21.15;81.35;100701.97;5031584;28;20087;-73
2023/08/13 01:21:43;;;;;;;8.90;4.70;;;;;;;21.01;81.90;100703.78;5031406;28;20033;-72
2023/08/13 01:24:09;;;;;;;9.75;4.82;;;;;;;20.76;82.90;100693.31;5031087;28;20061;-72
2023/08/13 01:26:47;;;;;;;7.93;5.20;;;;;;;20.68;83.55;100697.66;5031007;28;20033;-72
2023/08/13 01:29:20;;;;;;;10.05;5.13;;;;;;;20.43;84.73;100705.53;5031384;28;20018;-72
2023/08/13 01:31:50;;;;;;;9.10;5.05;;;;;;;20.36;85.52;100703.78;5031351;28;20029;-72
2023/08/13 01:34:17;;;;;;;7.80;5.18;;;;;;;20.04;86.85;100689.78;5030946;28;20412;-72
2023/08/13 01:36:43;;;;;;;9.18;4.97;;;;;;;20.14;87.17;100702.91;5027942;28;20112;-72
2023/08/13 01:39:09;;;;;;;7.22;4.95;;;;;;;19.88;87.86;100703.75;5030758;28;20033;-72
2023/08/13 01:41:45;;;;;;;8.40;5.82;;;;;;;19.77;88.61;100700.19;5031156;28;20153;-72
2023/08/13 01:44:10;;;;;;;10.05;5.40;;;;;;;19.18;89.55;100637.16;5030618;28;20546;-72
2023/08/13 01:46:36;;;;;;;8.63;4.47;;;;;;;19.37;90.56;100700.91;5030465;28;20029;-72
2023/08/13 01:49:01;;;;;;;8.48;5.80;;;;;;;19.08;91.93;100706.88;5030778;28;20033;-72
2023/08/13 01:51:26;;;;;;;7.75;5.32;;;;;;;18.59;94.24;100689.97;5030849;28;20040;-72
2023/08/13 01:53:52;;;;;;;7.95;5.25;;;;;;;18.75;94.24;100704.03;5030479;28;20033;-72
2023/08/13 01:56:17;;;;;;;10.38;5.00;;;;;;;18.64;94.32;100695.25;5030842;28;20108;-72
2023/08/13 01:58:42;;;;;;;6.82;5.00;;;;;;;18.69;94.21;100709.22;5030732;28;20025;-72
2023/08/13 02:01:08;;;;;;;7.22;4.70;;;;;;;18.71;93.76;100706.59;5031001;28;20034;-72
2023/08/13 02:03:33;;;;;;;7.75;4.78;;;;;;;18.60;94.44;100706.50;5030599;28;20476;-72
2023/08/13 02:05:59;;;;;;;7.10;5.40;;;;;;;18.64;94.27;100704.81;5030248;28;20049;-72
2023/08/13 02:08:24;;;;;;;10.43;5.57;;;;;;;18.64;93.66;100715.25;5030248;28;20029;-72
2023/08/13 02:10:49;;;;;;;10.60;4.65;;;;;;;17.88;93.47;100584.84;5030721;28;20548;-72
2023/08/13 02:13:15;;;;;;;6.88;4.70;;;;;;;18.45;94.33;100715.09;5030690;28;20096;-72
2023/08/13 02:15:40;;;;;;;8.27;4.68;;;;;;;18.04;93.82;100640.69;4979237;28;20084;-72
2023/08/13 02:18:06;;;;;;;7.50;4.60;;;;;;;18.56;93.05;100718.69;5030407;28;20493;-72
2023/08/13 02:20:31;;;;;;;6.82;4.80;;;;;;;18.39;93.96;100722.91;5030423;28;20095;-72
2023/08/13 02:22:56;;;;;;;7.68;4.70;;;;;;;18.38;93.71;100731.59;5029980;28;20172;-72
2023/08/13 02:25:22;;;;;;;9.35;5.30;;;;;;;18.42;93.69;100725.56;5030799;28;20038;-72
2023/08/13 02:27:47;;;;;;;8.10;4.72;;;;;;;18.08;93.58;100659.91;5030104;28;20412;-72
2023/08/13 02:30:14;;;;;;;8.63;4.85;;;;;;;18.35;94.21;100721.13;5030384;28;20400;-73
2023/08/13 02:32:40;;;;;;;6.80;4.70;;;;;;;18.41;93.91;100731.66;5030325;28;20516;-72
2023/08/13 02:35:06;;;;;;;8.77;4.82;;;;;;;18.50;93.25;100725.63;4978890;28;20121;-72
2023/08/13 02:37:31;;;;;;;10.02;4.97;;;;;;;18.64;92.56;100737.06;5030291;28;20025;-72
2023/08/13 02:39:57;;;;;;;6.05;4.78;;;;;;;18.75;91.80;100743.25;5030217;28;20051;-72
2023/08/13 02:42:23;;;;;;;8.05;4.97;;;;;;;18.83;89.51;100721.50;5030128;28;20029;-72
2023/08/13 02:44:48;;;;;;;7.85;5.10;;;;;;;18.94;87.49;100713.75;5030120;28;20026;-72
2023/08/13 02:47:14;;;;;;;9.65;5.38;;;;;;;19.12;85.53;100723.47;5030341;28;20022;-72
2023/08/13 02:49:39;;;;;;;8.57;4.97;;;;;;;19.14;84.44;100740.03;5011527;28;20041;-72
2023/08/13 02:52:05;;;;;;;6.50;4.45;;;;;;;19.18;83.96;100740.09;5030135;28;20531;-72
2023/08/13 02:54:30;;;;;;;7.88;4.70;;;;;;;19.23;83.50;100737.50;5029980;28;20069;-72
2023/08/13 02:56:56;;;;;;;5.68;4.72;;;;;;;19.05;84.48;100738.25;5030176;28;20068;-72
2023/08/13 02:59:21;;;;;;;8.55;5.03;;;;;;;18.70;85.35;100694.38;5029824;28;20025;-72
2023/08/13 03:01:46;;;;;;;13.52;5.20;;;;;;;18.97;85.93;100740.81;5030058;28;20052;-72
2023/08/13 03:04:12;;;;;;;7.25;4.65;;;;;;;19.08;85.84;100749.63;5030326;28;20041;-72
2023/08/13 03:06:37;;;;;;;11.63;5.40;;;;;;;19.20;85.74;100754.06;5029914;28;20060;-72
2023/08/13 03:09:03;;;;;;;8.57;5.00;;;;;;;19.28;85.72;100755.81;5030326;28;20036;-72
2023/08/13 03:11:28;;;;;;;11.20;4.80;;;;;;;19.16;86.18;100748.78;5030055;28;20024;-72
2023/08/13 03:13:54;;;;;;;9.85;4.43;;;;;;;19.09;86.64;100750.50;5030106;28;20491;-72
2023/08/13 03:16:20;;;;;;;8.55;5.45;;;;;;;19.03;87.24;100750.47;5030150;28;20523;-72
2023/08/13 03:18:45;;;;;;;9.13;4.88;;;;;;;18.95;87.43;100747.78;5030142;28;20084;-72
2023/08/13 03:21:11;;;;;;;7.25;4.72;;;;;;;18.79;87.86;100741.56;5029802;28;20033;-72
2023/08/13 03:23:36;;;;;;;9.32;5.07;;;;;;;18.80;88.57;100750.25;5029785;28;20029;-72
2023/08/13 03:26:03;;;;;;;11.38;5.10;;;;;;;18.31;88.83;100669.69;5030085;28;20017;-72
2023/08/13 03:28:28;;;;;;;11.43;5.00;;;;;;;18.54;89.44;100750.91;5030057;28;20030;-72
2023/08/13 03:30:58;;;;;;;9.13;5.10;;;;;;;17.76;91.27;100674.38;5030025;28;20036;-72
2023/08/13 03:33:23;;;;;;;10.93;5.05;;;;;;;18.06;91.83;100747.84;5029825;28;20072;-72
2023/08/13 03:35:49;;;;;;;11.90;5.85;;;;;;;17.88;92.58;100746.75;5011662;28;20022;-71
2023/08/13 03:38:14;;;;;;;12.70;5.75;;;;;;;17.69;93.31;100748.25;5030380;28;20408;-71
2023/08/13 03:40:40;;;;;;;13.38;5.20;;;;;;;17.36;93.50;100681.75;5033127;28;20036;-71
2023/08/13 03:43:05;;;;;;;10.73;5.72;;;;;;;17.24;94.34;100698.09;5029601;28;20194;-72
2023/08/13 03:45:30;;;;;;;14.88;5.20;;;;;;;17.39;94.96;100753.97;5029337;28;20116;-72
2023/08/13 03:47:56;;;;;;;8.48;5.00;;;;;;;17.57;94.22;100754.22;5033009;28;20095;-71
2023/08/13 03:50:21;;;;;;;11.73;5.22;;;;;;;17.36;94.74;100753.94;5032883;28;20025;-72
2023/08/13 03:52:47;;;;;;;8.20;5.80;;;;;;;17.42;94.46;100749.69;5033217;28;20540;-71
2023/08/13 03:55:12;;;;;;;10.40;5.97;;;;;;;17.46;94.41;100750.59;5033420;28;20484;-72
2023/08/13 03:57:37;;;;;;;9.57;6.10;;;;;;;17.66;93.73;100750.84;5032778;28;20021;-72
2023/08/13 04:00:04;;;;;;;12.75;8.23;;;;;;;17.81;92.88;100757.09;5032935;28;20040;-72
2023/08/13 04:02:32;;;;;;;12.75;8.75;;;;;;;17.94;92.34;100759.03;5032527;28;20113;-72
2023/08/13 04:04:58;;;;;;;13.35;8.48;;;;;;;18.05;91.81;100756.56;5033063;28;20037;-72
2023/08/13 04:07:23;;;;;;;15.48;7.70;;;;;;;18.07;91.78;100768.78;5032925;28;20049;-72
2023/08/13 04:09:48;;;;;;;13.02;7.13;;;;;;;18.16;91.36;100756.69;5032737;28;20029;-72
2023/08/13 04:12:14;;;;;;;11.35;7.70;;;;;;;18.30;90.76;100756.81;5032979;28;20032;-72
2023/08/13 04:14:39;;;;;;;13.70;7.03;;;;;;;18.35;89.94;100757.72;5032593;28;20076;-72
2023/08/13 04:17:05;;;;;;;12.88;7.90;;;;;;;18.39;90.09;100759.50;5032554;28;20037;-72
2023/08/13 04:19:30;;;;;;;13.60;7.78;;;;;;;18.32;89.34;100752.44;5032499;28;20099;-72
2023/08/13 04:21:55;;;;;;;15.65;7.78;;;;;;;18.54;89.19;100764.88;5032762;28;20033;-72
2023/08/13 04:24:21;;;;;;;12.35;7.32;;;;;;;18.62;89.21;100769.28;5032680;28;20030;-72
2023/08/13 04:26:46;;;;;;;19.48;7.78;;;;;;;18.61;88.72;100759.72;5032469;28;20025;-72
2023/08/13 04:29:12;;;;;;;16.30;6.93;;;;;;;18.37;88.48;100769.94;5032289;28;20117;-72
2023/08/13 04:31:37;;;;;;;44.75;32.15;;;;;;;18.29;88.63;100765.50;5032285;28;20397;-72
2023/08/13 04:34:03;;;;;;;81.85;60.05;;;;;;;18.18;89.68;100771.50;5031987;28;20065;-72
2023/08/13 04:36:28;;;;;;;240.57;167.57;;;;;;;17.67;89.81;100689.06;5032532;28;20025;-72
2023/08/13 04:38:53;;;;;;;284.10;190.80;;;;;;;17.83;89.96;100721.44;5032287;28;20467;-72
2023/08/13 04:41:19;;;;;;;205.95;138.02;;;;;;;17.84;90.63;100737.13;5032482;28;20500;-72
2023/08/13 04:43:44;;;;;;;97.10;65.43;;;;;;;18.03;91.22;100750.41;5032239;28;20026;-72
2023/08/13 04:46:10;;;;;;;42.03;27.45;;;;;;;18.03;91.07;100758.25;5032275;28;20035;-72
2023/08/13 04:48:46;;;;;;;15.27;10.15;;;;;;;17.85;91.88;100759.78;5031741;28;20046;-72
2023/08/13 04:51:13;;;;;;;10.45;6.80;;;;;;;17.67;91.82;100762.16;5032221;28;20056;-71
2023/08/13 04:53:38;;;;;;;10.68;6.40;;;;;;;17.69;92.35;100763.06;5031789;28;20021;-72
2023/08/13 04:56:06;;;;;;;6.80;5.60;;;;;;;17.63;91.95;100745.56;5031954;28;20029;-72
2023/08/13 04:58:32;;;;;;;10.82;5.90;;;;;;;17.60;93.39;100753.38;5031735;28;20512;-72
2023/08/13 05:00:58;;;;;;;11.55;6.00;;;;;;;17.89;92.20;100761.56;5031684;28;20500;-73
2023/08/13 05:03:23;;;;;;;9.18;6.63;;;;;;;17.93;92.37;100739.84;5031553;28;20029;-73
2023/08/13 05:05:49;;;;;;;16.48;7.80;;;;;;;18.26;91.06;100767.22;5031463;28;20639;-73
2023/08/13 05:08:14;;;;;;;13.52;8.68;;;;;;;18.10;89.06;100706.06;5031723;28;20076;-73
2023/08/13 05:10:39;;;;;;;22.02;13.23;;;;;;;18.50;88.50;100770.06;5031876;28;20032;-73
2023/08/13 05:13:05;;;;;;;13.35;8.15;;;;;;;18.17;87.97;100698.31;5031537;28;20060;-73
2023/08/13 05:15:31;;;;;;;11.75;8.27;;;;;;;18.69;88.06;100771.97;5031479;28;20034;-73
2023/08/13 05:17:57;;;;;;;19.55;12.60;;;;;;;18.88;87.52;100779.97;5031522;28;20036;-73
2023/08/13 05:20:23;;;;;;;27.73;18.67;;;;;;;18.94;89.27;100771.31;5031475;28;20032;-72
2023/08/13 05:22:49;;;;;;;26.60;17.92;;;;;;;19.12;86.89;100779.31;5031323;28;20026;-72
2023/08/13 05:25:14;;;;;;;37.85;23.05;;;;;;;19.30;86.62;100777.66;5031535;28;20025;-72
2023/08/13 05:27:40;;;;;;;16.48;10.75;;;;;;;19.42;85.61;100782.97;5031150;28;20040;-72
2023/08/13 05:30:06;;;;;;;15.57;9.07;;;;;;;18.73;85.08;100668.28;5031060;28;20052;-72
2023/08/13 05:32:31;;;;;;;14.88;8.52;;;;;;;19.47;85.22;100780.38;5031385;28;20025;-72
2023/08/13 05:34:56;;;;;;;12.10;7.88;;;;;;;19.60;85.41;100773.44;5031175;28;20036;-72
2023/08/13 05:37:22;;;;;;;9.48;6.53;;;;;;;19.73;85.73;100770.88;5031163;28;20795;-72
2023/08/13 05:39:47;;;;;;;11.63;5.40;;;;;;;19.85;83.81;100769.22;5031023;28;20547;-72
2023/08/13 05:42:13;;;;;;;9.68;5.97;;;;;;;19.91;85.24;100760.50;5031059;28;20041;-72
2023/08/13 05:44:38;;;;;;;7.28;4.90;;;;;;;20.10;82.62;100770.19;5030913;28;20041;-72
2023/08/13 05:47:05;;;;;;;6.90;4.90;;;;;;;20.12;82.14;100772.81;5030662;28;20041;-72
2023/08/13 05:49:30;;;;;;;6.03;4.82;;;;;;;20.26;82.30;100773.72;5031042;28;20031;-72
2023/08/13 05:51:55;;;;;;;7.07;4.65;;;;;;;20.10;80.73;100719.50;5030822;28;20033;-72
2023/08/13 05:54:21;;;;;;;6.43;4.40;;;;;;;20.56;81.08;100779.88;5030803;28;20104;-72
2023/08/13 05:56:47;;;;;;;5.88;4.82;;;;;;;20.58;80.94;100780.72;5031058;28;20037;-72
2023/08/13 05:59:13;;;;;;;7.30;5.25;;;;;;;20.55;81.03;100766.72;5030810;28;20452;-72
2023/08/13 06:01:38;;;;;;;7.53;5.20;;;;;;;20.74;79.24;100781.66;5030009;28;20029;-72
2023/08/13 06:04:04;;;;;;;8.50;5.30;;;;;;;20.91;78.43;100775.50;5030940;28;20333;-72
2023/08/13 06:06:30;;;;;;;7.43;5.00;;;;;;;20.60;78.50;100688.91;5030900;28;20072;-72
2023/08/13 06:08:55;;;;;;;8.15;5.18;;;;;;;21.08;79.56;100757.13;5030897;28;20468;-72
2023/08/13 06:11:21;;;;;;;9.07;5.18;;;;;;;21.25;80.17;100767.59;5030655;28;20448;-72
2023/08/13 06:13:46;;;;;;;7.82;5.43;;;;;;;21.06;77.67;100733.50;5030336;28;20027;-72
2023/08/13 06:16:12;;;;;;;6.32;5.18;;;;;;;21.48;79.69;100773.66;5030256;28;20032;-72
2023/08/13 06:18:37;;;;;;;8.48;4.85;;;;;;;21.60;78.56;100778.00;5030354;28;20025;-72
2023/08/13 06:21:03;;;;;;;7.40;4.70;;;;;;;21.80;77.36;100775.28;5030744;28;20022;-72
2023/08/13 06:23:29;;;;;;;7.65;4.72;;;;;;;21.61;76.27;100715.84;5030520;28;20025;-72
2023/08/13 06:25:55;;;;;;;7.68;4.65;;;;;;;22.05;76.04;100763.81;5030133;28;20080;-72
2023/08/13 06:28:20;;;;;;;7.93;4.78;;;;;;;22.18;74.60;100776.00;5030403;28;20041;-72
2023/08/13 06:30:46;;;;;;;6.90;4.97;;;;;;;22.23;75.02;100781.19;5030422;28;20029;-72
2023/08/13 06:33:11;;;;;;;6.95;4.30;;;;;;;22.32;73.64;100777.63;5012589;28;20477;-72
2023/08/13 06:35:37;;;;;;;8.90;4.65;;;;;;;22.42;74.66;100785.50;5030220;28;20386;-72
2023/08/13 06:38:03;;;;;;;7.40;5.00;;;;;;;22.47;74.02;100782.84;5030047;28;20029;-72
2023/08/13 06:40:29;;;;;;;7.47;4.60;;;;;;;22.23;74.40;100731.25;4969070;28;20043;-71
2023/08/13 06:42:54;;;;;;;7.30;4.63;;;;;;;22.46;73.88;100760.91;4969141;28;20066;-72
2023/08/13 06:45:23;;;;;;;5.93;4.43;;;;;;;22.53;72.29;100764.38;4969059;28;20419;-72
2023/08/13 06:47:49;;;;;;;6.70;4.50;;;;;;;22.64;72.76;100764.28;4968657;28;20035;-72
2023/08/13 06:50:14;;;;;;;8.07;4.68;;;;;;;22.84;71.58;100773.75;4968900;28;20509;-72
2023/08/13 06:52:39;;;;;;;12.63;5.00;;;;;;;23.06;69.87;100769.19;4969076;28;20087;-72
2023/08/13 06:55:05;;;;;;;10.90;5.05;;;;;;;23.18;67.38;100748.00;4968832;28;20167;-72
2023/08/13 06:57:30;;;;;;;14.70;4.72;;;;;;;23.45;70.89;100768.78;4968761;28;20054;-73
2023/08/13 06:59:56;;;;;;;7.05;4.40;;;;;;;23.53;67.92;100761.69;4968590;28;20043;-72
2023/08/13 07:02:23;;;;;;;5.43;4.03;;;;;;;23.59;66.93;100757.19;4968848;28;20035;-72
2023/08/13 07:04:49;;;;;;;8.88;4.60;;;;;;;23.41;68.59;100710.88;4968760;28;20042;-73
2023/08/13 07:07:15;;;;;;;7.00;4.00;;;;;;;23.87;66.21;100745.41;4968939;28;20077;-72
2023/08/13 07:09:40;;;;;;;8.00;4.78;;;;;;;24.01;68.72;100751.41;4936677;28;20035;-72
2023/08/13 07:12:06;;;;;;;7.90;4.38;;;;;;;24.13;66.33;100752.13;5015773;28;20045;-72
2023/08/13 07:14:31;;;;;;;7.43;4.05;;;;;;;24.14;67.40;100733.63;5033517;28;20112;-72
2023/08/13 07:16:57;;;;;;;10.35;4.45;;;;;;;24.27;64.66;100738.72;5033528;28;20029;-72
2023/08/13 07:19:22;;;;;;;14.57;4.85;;;;;;;24.41;62.20;100738.50;5033816;28;20392;-72
2023/08/13 07:21:48;;;;;;;9.15;4.32;;;;;;;24.68;60.49;100737.19;5015932;28;20030;-72
2023/08/13 07:24:13;;;;;;;8.05;4.03;;;;;;;24.49;59.14;100684.69;5033786;28;20033;-72
2023/08/13 07:26:38;;;;;;;11.30;4.57;;;;;;;25.06;56.16;100737.41;5031108;28;20033;-72
2023/08/13 07:29:06;;;;;;;12.80;4.78;;;;;;;25.26;58.51;100743.19;5013920;28;20053;-72
2023/08/13 07:31:32;;;;;;;11.50;4.65;;;;;;;25.43;55.97;100734.91;4962872;28;20157;-72
2023/08/13 07:33:58;;;;;;;31.05;6.28;;;;;;;25.63;55.18;100738.94;5013475;28;20033;-72
2023/08/13 07:36:23;;;;;;;18.42;5.55;;;;;;;25.75;56.96;100722.78;5013524;28;20021;-72
2023/08/13 07:38:49;;;;;;;10.80;3.80;;;;;;;25.74;52.68;100709.63;5013531;28;20149;-71
2023/08/13 07:41:14;;;;;;;6.38;3.55;;;;;;;25.85;53.94;100731.41;5013513;28;20022;-72
2023/08/13 07:43:39;;;;;;;7.65;3.05;;;;;;;25.97;52.68;100730.22;5013276;28;20037;-72
2023/08/13 07:46:05;;;;;;;7.07;3.72;;;;;;;26.16;51.25;100721.00;5013550;28;20021;-72
2023/08/13 07:48:30;;;;;;;9.32;3.70;;;;;;;26.19;49.91;100672.41;5013298;28;20038;-72
2023/08/13 07:50:56;;;;;;;10.63;3.80;;;;;;;26.59;49.69;100727.03;5013394;28;20393;-72
2023/08/13 07:53:21;;;;;;;8.00;3.33;;;;;;;26.63;48.68;100725.13;5013356;28;20037;-72
2023/08/13 07:55:49;;;;;;;8.13;3.65;;;;;;;26.81;48.02;100718.53;5013455;28;20469;-72
2023/08/13 07:58:15;;;;;;;10.82;3.63;;;;;;;26.90;46.63;100717.41;5012937;28;20065;-72
2023/08/13 08:00:41;;;;;;;13.50;4.45;;;;;;;26.98;47.39;100720.75;5013258;28;20053;-72
2023/08/13 08:03:06;;;;;;;24.95;5.60;;;;;;;26.69;46.50;100655.28;5013180;28;20053;-72
2023/08/13 08:05:31;;;;;;;13.00;4.13;;;;;;;27.11;46.66;100711.53;5013112;28;20046;-72
2023/08/13 08:07:57;;;;;;;29.95;5.32;;;;;;;27.02;47.31;100660.59;5013291;28;20033;-72
2023/08/13 08:10:23;;;;;;;18.17;4.28;;;;;;;27.35;43.88;100700.25;5013181;28;20437;-72
2023/08/13 08:12:49;;;;;;;10.90;3.63;;;;;;;27.34;46.69;100698.53;5012741;28;20401;-72
2023/08/13 08:15:14;;;;;;;10.13;3.90;;;;;;;27.36;44.53;100680.81;5012959;28;20041;-73
2023/08/13 08:17:40;;;;;;;13.65;3.50;;;;;;;27.57;44.31;100687.28;5012857;28;20057;-72
2023/08/13 08:20:06;;;;;;;5.18;3.28;;;;;;;27.73;44.47;100687.69;5013016;28;20030;-72
2023/08/13 08:22:32;;;;;;;23.75;5.32;;;;;;;27.81;43.24;100696.25;5012601;28;20030;-72
2023/08/13 08:24:58;;;;;;;7.60;2.83;;;;;;;27.88;41.60;100691.63;5012144;28;20029;-72
2023/08/13 08:27:23;;;;;;;9.77;3.30;;;;;;;27.50;41.87;100600.88;4994787;28;20409;-72
2023/08/13 08:29:48;;;;;;;9.60;3.55;;;;;;;28.04;43.08;100676.13;5012561;28;20026;-72
2023/08/13 08:32:14;;;;;;;23.45;5.15;;;;;;;28.10;43.43;100691.81;5012962;28;20058;-72
2023/08/13 08:34:39;;;;;;;20.35;4.97;;;;;;;28.20;41.08;100680.00;5012273;28;20038;-72
2023/08/13 08:37:05;;;;;;;19.30;4.28;;;;;;;28.25;41.28;100682.47;5012707;28;20025;-73
2023/08/13 08:39:31;;;;;;;8.73;3.15;;;;;;;28.29;43.63;100665.53;5012557;28;20025;-71
2023/08/13 08:41:57;;;;;;;18.63;4.35;;;;;;;28.23;42.20;100660.44;5012410;28;20065;-73
2023/08/13 08:44:23;;;;;;;8.27;3.67;;;;;;;28.49;40.21;100670.16;4994743;28;20038;-73
2023/08/13 08:46:51;;;;;;;15.13;4.68;;;;;;;28.52;42.80;100650.59;5012126;28;20030;-72
2023/08/13 08:49:21;;;;;;;8.80;3.13;;;;;;;28.49;39.53;100669.31;5012444;28;20389;-73
2023/08/13 08:51:48;;;;;;;7.03;3.22;;;;;;;28.49;39.92;100671.97;5012023;28;20042;-74
2023/08/13 08:54:14;;;;;;;12.93;3.78;;;;;;;28.57;39.39;100670.78;5012395;28;20026;-73
2023/08/13 08:56:40;;;;;;;13.88;4.22;;;;;;;28.53;42.71;100653.19;5011963;28;20064;-73
2023/08/13 08:59:06;;;;;;;12.10;3.20;;;;;;;28.70;41.13;100668.56;5011801;28;20409;-72
2023/08/13 09:01:32;;;;;;;5.28;3.38;;;;;;;28.68;37.11;100675.72;5012086;28;20029;-73
2023/08/13 09:03:57;;;;;;;18.75;3.42;;;;;;;28.83;38.88;100660.16;4961000;28;20045;-73
2023/08/13 09:06:23;;;;;;;6.85;3.13;;;;;;;28.81;37.10;100660.22;5011545;28;20052;-73
2023/08/13 09:08:49;;;;;;;14.73;3.35;;;;;;;28.99;40.51;100660.47;5011779;28;20540;-73
2023/08/13 09:11:16;;;;;;;11.23;3.13;;;;;;;29.13;38.87;100674.09;4976966;28;20124;-73
2023/08/13 09:13:48;;;;;;;19.95;3.50;;;;;;;29.22;38.39;100656.94;4994769;28;20112;-73
2023/08/13 09:16:14;;;;;;;6.30;3.17;;;;;;;29.31;36.64;100661.97;5011875;28;20065;-73
2023/08/13 09:18:39;;;;;;;39.70;4.93;;;;;;;29.47;37.44;100662.25;5011669;28;20512;-73
2023/08/13 09:21:05;;;;;;;23.95;3.63;;;;;;;29.45;37.48;100657.91;5011920;28;20026;-73
2023/08/13 09:23:30;;;;;;;8.50;3.47;;;;;;;29.56;35.45;100652.13;5011406;28;20085;-73
2023/08/13 09:25:57;;;;;;;18.73;3.30;;;;;;;29.60;34.94;100656.44;4961229;28;20520;-74
2023/08/13 09:28:25;;;;;;;9.90;2.97;;;;;;;29.54;34.58;100637.09;5013818;28;20033;-73
2023/08/13 09:30:50;;;;;;;5.25;2.92;;;;;;;29.64;35.18;100644.72;5031337;28;20029;-73
2023/08/13 09:33:17;;;;;;;11.98;3.33;;;;;;;29.68;34.56;100646.34;5031026;28;20026;-74
2023/08/13 09:35:44;;;;;;;7.72;3.20;;;;;;;29.85;35.73;100656.31;5030422;28;20045;-73
2023/08/13 09:38:10;;;;;;;8.48;3.92;;;;;;;29.86;34.56;100650.06;5030662;28;20104;-73
2023/08/13 09:40:36;;;;;;;13.38;4.13;;;;;;;30.05;32.58;100655.50;5030816;28;20030;-73
2023/08/13 09:43:06;;;;;;;25.30;5.10;;;;;;;29.77;33.42;100605.19;5031193;28;20036;-72
2023/08/13 09:45:34;;;;;;;17.45;4.20;;;;;;;30.14;33.49;100652.44;5031103;28;20033;-72
2023/08/13 09:48:04;;;;;;;10.07;3.20;;;;;;;30.14;34.02;100646.28;5030871;28;20501;-73
2023/08/13 09:50:34;;;;;;;12.18;3.08;;;;;;;30.24;34.09;100652.94;5030778;28;20441;-73
2023/08/13 09:53:01;;;;;;;9.77;3.13;;;;;;;30.28;33.82;100648.34;5030640;28;20102;-74
2023/08/13 09:55:31;;;;;;;10.98;3.28;;;;;;;30.42;34.75;100650.41;5031009;28;20535;-73
2023/08/13 09:58:00;;;;;;;10.63;3.78;;;;;;;30.60;32.68;100643.47;5030745;28;20040;-72
2023/08/13 10:00:27;;;;;;;9.45;3.17;;;;;;;30.57;31.63;100648.91;5030838;28;20025;-73
2023/08/13 10:02:52;;;;;;;12.70;3.05;;;;;;;30.66;31.68;100651.19;5030755;28;20033;-72
2023/08/13 10:05:19;;;;;;;13.20;4.25;;;;;;;30.40;31.83;100607.00;5030321;28;20495;-72
2023/08/13 10:07:45;;;;;;;13.32;4.43;;;;;;;30.70;34.07;100631.44;5031004;28;20037;-73
2023/08/13 10:10:10;;;;;;;18.00;4.32;;;;;;;30.86;31.85;100630.78;5030846;28;20029;-73
2023/08/13 10:12:38;;;;;;;19.95;4.00;;;;;;;31.00;30.96;100627.47;5030667;28;20037;-72
2023/08/13 10:15:05;;;;;;;10.13;3.40;;;;;;;31.23;30.64;100616.63;5030763;28;20029;-72
2023/08/13 10:17:32;;;;;;;13.45;4.50;;;;;;;31.07;31.62;100589.81;5030300;28;20084;-73
2023/08/13 10:19:59;;;;;;;12.15;3.47;;;;;;;31.39;31.40;100615.88;5030178;28;20420;-74
2023/08/13 10:22:32;;;;;;;17.30;4.68;;;;;;;31.42;30.89;100627.28;5030410;28;20108;-73
2023/08/13 10:24:59;;;;;;;18.38;4.57;;;;;;;31.46;30.93;100628.84;5030214;28;20527;-72
2023/08/13 10:27:25;;;;;;;17.65;4.70;;;;;;;31.63;30.30;100619.19;5030727;28;20061;-74
2023/08/13 10:30:12;;;;;;;10.05;4.22;;;;;;;31.48;30.44;100585.22;5030215;28;20104;-73
2023/08/13 10:32:56;;;;;;;8.15;3.03;;;;;;;31.69;29.94;100626.91;5030336;28;20188;-74
2023/08/13 10:35:23;;;;;;;8.27;2.88;;;;;;;31.72;29.66;100623.22;5030140;28;20132;-73
2023/08/13 10:37:55;;;;;;;5.53;3.08;;;;;;;31.83;31.80;100618.22;5030613;28;20080;-74
2023/08/13 10:40:21;;;;;;;10.00;3.20;;;;;;;31.96;29.66;100615.78;5030238;28;20032;-73
2023/08/13 10:42:52;;;;;;;15.45;4.63;;;;;;;32.05;30.02;100609.13;5030004;28;20033;-73
2023/08/13 10:45:23;;;;;;;8.45;2.92;;;;;;;32.00;32.11;100592.47;5030038;28;20062;-73
2023/08/13 10:47:54;;;;;;;10.30;3.13;;;;;;;32.02;30.25;100599.44;4982856;28;20033;-73
2023/08/13 10:50:21;;;;;;;6.18;3.17;;;;;;;32.03;29.50;100590.50;5034480;28;20083;-73
2023/08/13 10:52:52;;;;;;;7.95;3.90;;;;;;;31.87;30.32;100586.91;5034247;28;20029;-73
2023/08/13 10:55:28;;;;;;;12.40;3.95;;;;;;;32.12;28.38;100591.00;5034223;28;20061;-74
2023/08/13 10:57:54;;;;;;;9.15;3.58;;;;;;;32.27;31.00;100584.88;5034499;28;20025;-73
2023/08/13 11:00:24;;;;;;;8.73;2.80;;;;;;;32.27;28.41;100584.88;4999020;28;20053;-73
2023/08/13 11:02:57;;;;;;;16.58;4.60;;;;;;;32.36;28.37;100586.19;5034023;28;20108;-73
2023/08/13 11:05:26;;;;;;;15.48;5.00;;;;;;;32.59;28.03;100572.47;4983287;28;20057;-72
2023/08/13 11:07:52;;;;;;;13.00;3.90;;;;;;;32.74;29.52;100580.63;5033967;28;20145;-73
2023/08/13 11:10:19;;;;;;;6.22;2.67;;;;;;;32.81;28.35;100570.47;5034042;28;20049;-74
2023/08/13 11:12:46;;;;;;;9.43;3.33;;;;;;;32.76;28.66;100568.03;5033892;28;20049;-74
2023/08/13 11:15:11;;;;;;;11.25;3.03;;;;;;;32.89;28.61;100569.09;5034029;28;20045;-74
2023/08/13 11:17:39;;;;;;;10.05;3.45;;;;;;;32.80;29.11;100533.97;5033728;28;20722;-73